Wheat Ridge, CO (80033)

11:20 AM MST on February 13, 2016 (GMT -0700)
Crown Hill Park | | Change Station
CLOSE
Current Station
Personal Weather Station
Location: Wheat Ridge, CO
Elevation: 5480 ft
Nearby Weather Stations

Elev 5480 ft 39.77 °N, 105.10 °W | Updated 4 minutes ago

Overcast
Overcast
60.9 °F
Feels Like 60.9 °F
N
0.0
Wind Variable Wind from SE

Today
High -- | Low -- °F
--% Chance of Precip.
Yesterday
High -- | Low -- °F
Precip. -- in
Pressure 30.01 in
Visibility 50.0 miles
Clouds Mostly Cloudy 15000 ft
Dew Point 35 °F
Humidity 38%
Rainfall 0.00 in
Snow Depth Not available.
6:55 AM 5:33 PM
Waxing Crescent, 33% visible
METAR KBJC 131755Z 36009KT 50SM VCFG BKN150 07/01 A3001
Pressure 30.01 in
Visibility 50.0 miles
Clouds Mostly Cloudy 15000 ft
Dew Point 35 °F
Humidity 38%
Rainfall 0.00 in
Snow Depth Not available.
6:55 AM 5:33 PM
Waxing Crescent, 33% visible
METAR KBJC 131755Z 36009KT 50SM VCFG BKN150 07/01 A3001

10-Day Weather Forecast

Almanac

Astronomy

Feb. 13, 2016 Rise Set
Actual Time
Civil Twilight
Nautical Twilight
Astronomical Twilight
Moon
Length of Visible Light
Length of Day
Tomorrow will be .
, % of the Moon is Illuminated

Today's Extremes

State Highs State Lows

Community

WunderPhotos

Upload Photos

1,892,632 photos uploaded!

WunderBlog® & News

Nearby

Air Quality

  Air Quality AQ Index Pollutant
Not available.

Snow Depth

Station Depth Elevation

Earthquake Activity

City Distance Mag. Time & Date
Minimum magnitude displayed is 2.5.

Coastal Water Temperatures

Place Temperature

Stations

Nearby Weather Stations

Station Location Temp. Windchill Dew Point Humidity Wind Precip. Elev Updated Type
                   

Watches & Warnings

There are currently no watches in effect.